Details From KELP - El Paso Intl
To KPSP - Palm Springs Intl
Flight Number -
Tags Generated
Created
Modified
Stats Distance 526 nm / 974 km
Max Altitude 0 ft / 0 m
Waypoints 4
Social Downloads 0
Likes 0
Share VATSIM

Download

Looking for another format? Having issues loading an existing format? Contact us
Advertisement - Login to hide

Notes

Generated

Route

KELP TAFYE EMRUD KPSP

ID Type Via Altitude Latitude Longitude Leg Dist Tot Dist Heading (true) Name
O KELP APT - 0 ft / 0 m 31.80572˚ -106.36983˚ - 0 nm - El Paso Intl
TAFYE FIX - 0 ft / 0 m 32.98025˚ -111.66386˚ 277 nm 277 nm 286° / 283° -
EMRUD FIX - 0 ft / 0 m 33.79409˚ -116.25158˚ 235 nm 512 nm 283° / 281° -
O KPSP APT - 0 ft / 0 m 33.83517˚ -116.50967˚ 13 nm 525 nm 281° / 281° -

Altitude Profile

Advertisement - Login to hide

Weather


0- 5 10 15 20 25 30 35+ Temperature / ° C

Clouds and Precipitation
Forecast for 2017-12-15 12:00 UTC. Updated an hour ago

Ground ~20,000 ft ~40,000 ft Winds

KELP

Details ICAO KELP (ELP)
Name El Paso Intl
Region United States
Timezone America/Denver (UTC-7.0)
Stats Elevation 3,958 ft / 1,206 m (AMSL)
Location 31.806535° -106.374581°
Runways 3
Magnetic Variation 8.109° E

METAR

KELP 150951Z 35004KT 10SM FEW200 03/M06 A3028 RMK AO2 SLP227 T00331061

Decode

TAF

TAF KELP 150520Z 1506/1606 06007KT P6SM FEW100 FEW200 FM152000 18005KT P6SM SKC

Decode

Departure Runways

ID Width Length Bearing (true) Bearing (mag) Surface Threshold Offset Overrun Length
04 150 ft / 46 m 12,021 ft / 3,664 m 49.85° 41.74° Asphalt 0 ft / 0 m 1,000 ft / 305 m
08L 75 ft / 23 m 5,482 ft / 1,671 m 88.32° 80.21° Asphalt 0 ft / 0 m 0 ft / 0 m
08R 150 ft / 46 m 9,007 ft / 2,746 m 93.32° 85.21° Asphalt 0 ft / 0 m 3,100 ft / 945 m
22 150 ft / 46 m 12,021 ft / 3,664 m 229.87° 221.76° Asphalt 0 ft / 0 m 0 ft / 0 m
26L 150 ft / 46 m 9,007 ft / 2,746 m 273.34° 265.23° Asphalt 0 ft / 0 m 0 ft / 0 m
26R 75 ft / 23 m 5,482 ft / 1,671 m 268.33° 260.22° Asphalt 0 ft / 0 m 0 ft / 0 m

KPSP

Details ICAO KPSP (PSP)
Name Palm Springs Intl
Region United States
Timezone America/Los_Angeles (UTC-8.0)
Stats Elevation 477 ft / 145 m (AMSL)
Location 33.829677° -116.506218°
Runways 2
Magnetic Variation 11.580° E

METAR

KPSP 150953Z AUTO 32005KT 10SM CLR 21/M12 A3018 RMK AO2 SLP217 T02061117

Decode

TAF

KPSP 150520Z 1506/1606 32008KT P6SM SKC FM151400 VRB05KT P6SM SKC FM151900 12006KT P6SM SKC

Decode

Destination Runways

ID Width Length Bearing (true) Bearing (mag) Surface Threshold Offset Overrun Length
13L 75 ft / 23 m 4,958 ft / 1,511 m 143.52° 131.94° Asphalt 0 ft / 0 m 151 ft / 46 m
13R 151 ft / 46 m 10,012 ft / 3,052 m 143.52° 131.94° Asphalt 2,999 ft / 914 m 200 ft / 61 m
31L 151 ft / 46 m 10,012 ft / 3,052 m 323.53° 311.95° Asphalt 1,499 ft / 457 m 200 ft / 61 m
31R 75 ft / 23 m 4,958 ft / 1,511 m 323.53° 311.95° Asphalt 0 ft / 0 m 151 ft / 46 m

Popular Alternatives